sensor_id;sensor_type;location;lat;lon;timestamp;P1;durP1;ratioP1;P2;durP2;ratioP2
16878;SDS011;8556;52.218;9.884;2023-11-19T00:01:36;1.03;;;0.80;;
16878;SDS011;8556;52.218;9.884;2023-11-19T00:04:04;0.77;;;0.77;;
16878;SDS011;8556;52.218;9.884;2023-11-19T00:06:31;0.50;;;0.50;;
16878;SDS011;8556;52.218;9.884;2023-11-19T00:08:58;0.57;;;0.57;;
16878;SDS011;8556;52.218;9.884;2023-11-19T00:11:25;0.60;;;0.60;;
16878;SDS011;8556;52.218;9.884;2023-11-19T00:13:52;0.50;;;0.50;;
16878;SDS011;8556;52.218;9.884;2023-11-19T00:16:19;1.07;;;0.97;;
16878;SDS011;8556;52.218;9.884;2023-11-19T00:18:45;1.33;;;0.80;;
16878;SDS011;8556;52.218;9.884;2023-11-19T00:21:14;0.97;;;0.90;;
16878;SDS011;8556;52.218;9.884;2023-11-19T00:23:41;0.60;;;0.60;;
16878;SDS011;8556;52.218;9.884;2023-11-19T00:26:08;1.03;;;0.97;;
16878;SDS011;8556;52.218;9.884;2023-11-19T00:28:35;0.93;;;0.83;;
16878;SDS011;8556;52.218;9.884;2023-11-19T00:31:03;0.87;;;0.87;;
16878;SDS011;8556;52.218;9.884;2023-11-19T00:33:30;0.93;;;0.93;;
16878;SDS011;8556;52.218;9.884;2023-11-19T00:35:57;0.80;;;0.80;;
16878;SDS011;8556;52.218;9.884;2023-11-19T00:38:25;0.50;;;0.50;;
16878;SDS011;8556;52.218;9.884;2023-11-19T00:40:52;0.93;;;0.93;;
16878;SDS011;8556;52.218;9.884;2023-11-19T00:43:19;1.93;;;1.13;;
16878;SDS011;8556;52.218;9.884;2023-11-19T00:45:47;0.70;;;0.70;;
16878;SDS011;8556;52.218;9.884;2023-11-19T00:48:15;0.90;;;0.90;;
16878;SDS011;8556;52.218;9.884;2023-11-19T00:50:42;0.73;;;0.73;;
16878;SDS011;8556;52.218;9.884;2023-11-19T00:53:10;0.77;;;0.77;;
16878;SDS011;8556;52.218;9.884;2023-11-19T00:55:38;1.57;;;0.80;;
16878;SDS011;8556;52.218;9.884;2023-11-19T00:58:05;0.80;;;0.77;;
16878;SDS011;8556;52.218;9.884;2023-11-19T01:00:32;0.60;;;0.60;;
16878;SDS011;8556;52.218;9.884;2023-11-19T01:03:00;0.60;;;0.60;;
16878;SDS011;8556;52.218;9.884;2023-11-19T01:05:26;0.63;;;0.63;;
16878;SDS011;8556;52.218;9.884;2023-11-19T01:07:53;1.03;;;0.90;;
16878;SDS011;8556;52.218;9.884;2023-11-19T01:10:20;0.70;;;0.60;;
16878;SDS011;8556;52.218;9.884;2023-11-19T01:12:48;0.50;;;0.50;;
16878;SDS011;8556;52.218;9.884;2023-11-19T01:15:15;0.90;;;0.70;;
16878;SDS011;8556;52.218;9.884;2023-11-19T01:17:43;0.63;;;0.63;;
16878;SDS011;8556;52.218;9.884;2023-11-19T01:20:10;0.73;;;0.60;;
16878;SDS011;8556;52.218;9.884;2023-11-19T01:22:38;1.77;;;0.90;;
16878;SDS011;8556;52.218;9.884;2023-11-19T01:25:05;1.37;;;0.57;;
16878;SDS011;8556;52.218;9.884;2023-11-19T01:27:33;0.60;;;0.60;;
16878;SDS011;8556;52.218;9.884;2023-11-19T01:30:02;0.50;;;0.50;;
16878;SDS011;8556;52.218;9.884;2023-11-19T01:32:29;0.70;;;0.70;;
16878;SDS011;8556;52.218;9.884;2023-11-19T01:34:56;1.43;;;0.57;;
16878;SDS011;8556;52.218;9.884;2023-11-19T01:37:23;0.90;;;0.87;;
16878;SDS011;8556;52.218;9.884;2023-11-19T01:39:49;0.63;;;0.63;;
16878;SDS011;8556;52.218;9.884;2023-11-19T01:42:16;0.60;;;0.60;;
16878;SDS011;8556;52.218;9.884;2023-11-19T01:44:53;0.80;;;0.80;;
16878;SDS011;8556;52.218;9.884;2023-11-19T01:47:25;0.77;;;0.77;;
16878;SDS011;8556;52.218;9.884;2023-11-19T01:49:54;0.80;;;0.60;;
16878;SDS011;8556;52.218;9.884;2023-11-19T01:52:22;0.50;;;0.50;;
16878;SDS011;8556;52.218;9.884;2023-11-19T01:54:51;0.73;;;0.73;;
16878;SDS011;8556;52.218;9.884;2023-11-19T01:57:20;0.67;;;0.67;;
16878;SDS011;8556;52.218;9.884;2023-11-19T01:59:48;0.77;;;0.77;;
16878;SDS011;8556;52.218;9.884;2023-11-19T02:02:17;0.50;;;0.50;;
16878;SDS011;8556;52.218;9.884;2023-11-19T02:04:46;0.57;;;0.57;;
16878;SDS011;8556;52.218;9.884;2023-11-19T02:07:14;0.73;;;0.70;;
16878;SDS011;8556;52.218;9.884;2023-11-19T02:09:42;0.80;;;0.80;;
16878;SDS011;8556;52.218;9.884;2023-11-19T02:12:09;1.63;;;1.10;;
16878;SDS011;8556;52.218;9.884;2023-11-19T02:14:37;0.60;;;0.60;;
16878;SDS011;8556;52.218;9.884;2023-11-19T02:17:04;1.50;;;0.97;;
16878;SDS011;8556;52.218;9.884;2023-11-19T02:19:31;0.90;;;0.70;;
16878;SDS011;8556;52.218;9.884;2023-11-19T02:22:00;1.70;;;0.67;;
16878;SDS011;8556;52.218;9.884;2023-11-19T02:24:27;1.23;;;0.77;;
16878;SDS011;8556;52.218;9.884;2023-11-19T02:27:01;2.20;;;0.70;;
16878;SDS011;8556;52.218;9.884;2023-11-19T02:29:34;1.13;;;0.83;;
16878;SDS011;8556;52.218;9.884;2023-11-19T02:32:01;1.73;;;0.60;;
16878;SDS011;8556;52.218;9.884;2023-11-19T02:34:28;2.13;;;0.70;;
16878;SDS011;8556;52.218;9.884;2023-11-19T02:36:55;2.10;;;0.70;;
16878;SDS011;8556;52.218;9.884;2023-11-19T02:39:22;0.63;;;0.60;;
16878;SDS011;8556;52.218;9.884;2023-11-19T02:41:49;0.60;;;0.60;;
16878;SDS011;8556;52.218;9.884;2023-11-19T02:44:18;0.70;;;0.70;;
16878;SDS011;8556;52.218;9.884;2023-11-19T02:46:46;0.40;;;0.40;;
16878;SDS011;8556;52.218;9.884;2023-11-19T02:49:13;0.30;;;0.30;;
16878;SDS011;8556;52.218;9.884;2023-11-19T02:51:41;1.00;;;0.40;;
16878;SDS011;8556;52.218;9.884;2023-11-19T02:54:08;0.60;;;0.60;;
16878;SDS011;8556;52.218;9.884;2023-11-19T02:56:35;0.70;;;0.70;;
16878;SDS011;8556;52.218;9.884;2023-11-19T02:59:04;0.40;;;0.40;;
16878;SDS011;8556;52.218;9.884;2023-11-19T03:01:39;0.20;;;0.20;;
16878;SDS011;8556;52.218;9.884;2023-11-19T03:04:10;0.60;;;0.50;;
16878;SDS011;8556;52.218;9.884;2023-11-19T03:06:37;0.67;;;0.67;;
16878;SDS011;8556;52.218;9.884;2023-11-19T03:09:04;0.90;;;0.90;;
16878;SDS011;8556;52.218;9.884;2023-11-19T03:11:35;0.93;;;0.53;;
16878;SDS011;8556;52.218;9.884;2023-11-19T03:14:02;1.43;;;0.40;;
16878;SDS011;8556;52.218;9.884;2023-11-19T03:16:29;0.43;;;0.40;;
16878;SDS011;8556;52.218;9.884;2023-11-19T03:18:56;0.80;;;0.70;;
16878;SDS011;8556;52.218;9.884;2023-11-19T03:21:28;3.87;;;0.90;;
16878;SDS011;8556;52.218;9.884;2023-11-19T03:23:56;0.90;;;0.70;;
16878;SDS011;8556;52.218;9.884;2023-11-19T03:26:25;0.80;;;0.67;;
16878;SDS011;8556;52.218;9.884;2023-11-19T03:28:52;1.60;;;0.70;;
16878;SDS011;8556;52.218;9.884;2023-11-19T03:31:19;0.60;;;0.60;;
16878;SDS011;8556;52.218;9.884;2023-11-19T03:33:46;1.33;;;1.10;;
16878;SDS011;8556;52.218;9.884;2023-11-19T03:36:13;0.50;;;0.50;;
16878;SDS011;8556;52.218;9.884;2023-11-19T03:38:41;0.60;;;0.60;;
16878;SDS011;8556;52.218;9.884;2023-11-19T03:41:10;0.80;;;0.77;;
16878;SDS011;8556;52.218;9.884;2023-11-19T03:43:37;0.80;;;0.80;;
16878;SDS011;8556;52.218;9.884;2023-11-19T03:46:05;1.17;;;0.80;;
16878;SDS011;8556;52.218;9.884;2023-11-19T03:48:41;0.60;;;0.50;;
16878;SDS011;8556;52.218;9.884;2023-11-19T03:51:08;0.97;;;0.87;;
16878;SDS011;8556;52.218;9.884;2023-11-19T03:53:36;0.80;;;0.80;;
16878;SDS011;8556;52.218;9.884;2023-11-19T03:56:05;1.17;;;0.80;;
16878;SDS011;8556;52.218;9.884;2023-11-19T03:58:34;0.80;;;0.80;;
16878;SDS011;8556;52.218;9.884;2023-11-19T04:01:01;0.80;;;0.80;;
16878;SDS011;8556;52.218;9.884;2023-11-19T04:03:28;0.70;;;0.70;;
16878;SDS011;8556;52.218;9.884;2023-11-19T04:05:54;0.73;;;0.73;;
16878;SDS011;8556;52.218;9.884;2023-11-19T04:08:21;1.17;;;0.70;;
16878;SDS011;8556;52.218;9.884;2023-11-19T04:10:48;2.30;;;1.17;;
16878;SDS011;8556;52.218;9.884;2023-11-19T04:13:17;1.13;;;0.80;;
16878;SDS011;8556;52.218;9.884;2023-11-19T04:15:44;1.43;;;1.33;;
16878;SDS011;8556;52.218;9.884;2023-11-19T04:18:11;1.10;;;1.00;;
16878;SDS011;8556;52.218;9.884;2023-11-19T04:20:38;1.77;;;1.37;;
16878;SDS011;8556;52.218;9.884;2023-11-19T04:23:07;3.73;;;1.33;;
16878;SDS011;8556;52.218;9.884;2023-11-19T04:25:34;1.50;;;1.40;;
16878;SDS011;8556;52.218;9.884;2023-11-19T04:28:01;1.70;;;1.47;;
16878;SDS011;8556;52.218;9.884;2023-11-19T04:30:29;1.97;;;1.67;;
16878;SDS011;8556;52.218;9.884;2023-11-19T04:32:57;1.80;;;1.70;;
16878;SDS011;8556;52.218;9.884;2023-11-19T04:35:24;2.70;;;1.90;;
16878;SDS011;8556;52.218;9.884;2023-11-19T04:37:51;1.70;;;1.60;;
16878;SDS011;8556;52.218;9.884;2023-11-19T04:40:22;1.93;;;1.83;;
16878;SDS011;8556;52.218;9.884;2023-11-19T04:42:49;2.30;;;2.10;;
16878;SDS011;8556;52.218;9.884;2023-11-19T04:45:16;4.10;;;2.00;;
16878;SDS011;8556;52.218;9.884;2023-11-19T04:47:44;5.90;;;2.90;;
16878;SDS011;8556;52.218;9.884;2023-11-19T04:50:11;2.40;;;2.00;;
16878;SDS011;8556;52.218;9.884;2023-11-19T04:52:37;2.33;;;2.13;;
16878;SDS011;8556;52.218;9.884;2023-11-19T04:55:07;4.13;;;2.70;;
16878;SDS011;8556;52.218;9.884;2023-11-19T04:57:37;3.07;;;2.37;;
16878;SDS011;8556;52.218;9.884;2023-11-19T05:00:04;4.03;;;3.07;;
16878;SDS011;8556;52.218;9.884;2023-11-19T05:02:32;6.60;;;2.70;;
16878;SDS011;8556;52.218;9.884;2023-11-19T05:05:01;4.13;;;2.80;;
16878;SDS011;8556;52.218;9.884;2023-11-19T05:07:28;3.50;;;2.70;;
16878;SDS011;8556;52.218;9.884;2023-11-19T05:09:55;4.53;;;2.70;;
16878;SDS011;8556;52.218;9.884;2023-11-19T05:12:22;5.97;;;2.83;;
16878;SDS011;8556;52.218;9.884;2023-11-19T05:14:49;3.00;;;2.70;;
16878;SDS011;8556;52.218;9.884;2023-11-19T05:17:16;4.53;;;3.07;;
16878;SDS011;8556;52.218;9.884;2023-11-19T05:19:44;3.17;;;2.87;;
16878;SDS011;8556;52.218;9.884;2023-11-19T05:22:12;6.40;;;3.20;;
16878;SDS011;8556;52.218;9.884;2023-11-19T05:24:39;3.83;;;2.80;;
16878;SDS011;8556;52.218;9.884;2023-11-19T05:27:06;5.50;;;3.23;;
16878;SDS011;8556;52.218;9.884;2023-11-19T05:29:34;4.37;;;3.07;;
16878;SDS011;8556;52.218;9.884;2023-11-19T05:32:00;7.03;;;4.23;;
16878;SDS011;8556;52.218;9.884;2023-11-19T05:34:27;4.83;;;3.33;;
16878;SDS011;8556;52.218;9.884;2023-11-19T05:36:55;7.77;;;2.83;;
16878;SDS011;8556;52.218;9.884;2023-11-19T05:39:23;4.77;;;3.17;;
16878;SDS011;8556;52.218;9.884;2023-11-19T05:41:50;3.77;;;2.90;;
16878;SDS011;8556;52.218;9.884;2023-11-19T05:44:17;5.17;;;2.77;;
16878;SDS011;8556;52.218;9.884;2023-11-19T05:46:44;4.93;;;2.87;;
16878;SDS011;8556;52.218;9.884;2023-11-19T05:49:11;4.07;;;2.97;;
16878;SDS011;8556;52.218;9.884;2023-11-19T05:51:38;7.20;;;2.97;;
16878;SDS011;8556;52.218;9.884;2023-11-19T05:54:06;4.03;;;3.20;;
16878;SDS011;8556;52.218;9.884;2023-11-19T05:56:35;4.43;;;2.90;;
16878;SDS011;8556;52.218;9.884;2023-11-19T05:59:04;6.43;;;3.27;;
16878;SDS011;8556;52.218;9.884;2023-11-19T06:01:34;3.70;;;3.27;;
16878;SDS011;8556;52.218;9.884;2023-11-19T06:04:01;4.23;;;3.17;;
16878;SDS011;8556;52.218;9.884;2023-11-19T06:06:29;5.30;;;3.20;;
16878;SDS011;8556;52.218;9.884;2023-11-19T06:08:56;4.70;;;3.30;;
16878;SDS011;8556;52.218;9.884;2023-11-19T06:11:23;7.37;;;3.60;;
16878;SDS011;8556;52.218;9.884;2023-11-19T06:13:53;4.53;;;3.27;;
16878;SDS011;8556;52.218;9.884;2023-11-19T06:16:20;4.73;;;3.60;;
16878;SDS011;8556;52.218;9.884;2023-11-19T06:18:48;7.70;;;3.83;;
16878;SDS011;8556;52.218;9.884;2023-11-19T06:21:15;7.03;;;4.27;;
16878;SDS011;8556;52.218;9.884;2023-11-19T06:23:42;8.80;;;4.50;;
16878;SDS011;8556;52.218;9.884;2023-11-19T06:26:09;10.93;;;5.47;;
16878;SDS011;8556;52.218;9.884;2023-11-19T06:28:36;16.80;;;6.60;;
16878;SDS011;8556;52.218;9.884;2023-11-19T06:31:04;11.13;;;5.70;;
16878;SDS011;8556;52.218;9.884;2023-11-19T06:33:31;13.40;;;5.93;;
16878;SDS011;8556;52.218;9.884;2023-11-19T06:35:59;14.17;;;5.93;;
16878;SDS011;8556;52.218;9.884;2023-11-19T06:38:26;10.53;;;5.17;;
16878;SDS011;8556;52.218;9.884;2023-11-19T06:40:53;14.23;;;6.20;;
16878;SDS011;8556;52.218;9.884;2023-11-19T06:43:19;13.20;;;5.93;;
16878;SDS011;8556;52.218;9.884;2023-11-19T06:45:46;12.93;;;6.13;;
16878;SDS011;8556;52.218;9.884;2023-11-19T06:48:14;22.23;;;5.70;;
16878;SDS011;8556;52.218;9.884;2023-11-19T06:50:41;14.30;;;5.63;;
16878;SDS011;8556;52.218;9.884;2023-11-19T06:53:08;11.67;;;4.87;;
16878;SDS011;8556;52.218;9.884;2023-11-19T06:55:36;10.97;;;4.87;;
16878;SDS011;8556;52.218;9.884;2023-11-19T06:58:03;15.00;;;4.30;;
16878;SDS011;8556;52.218;9.884;2023-11-19T07:00:30;12.27;;;4.20;;
16878;SDS011;8556;52.218;9.884;2023-11-19T07:02:58;11.90;;;4.47;;
16878;SDS011;8556;52.218;9.884;2023-11-19T07:05:26;16.80;;;4.97;;
16878;SDS011;8556;52.218;9.884;2023-11-19T07:07:53;15.33;;;5.20;;
16878;SDS011;8556;52.218;9.884;2023-11-19T07:10:20;15.87;;;5.73;;
16878;SDS011;8556;52.218;9.884;2023-11-19T07:12:47;14.70;;;4.63;;
16878;SDS011;8556;52.218;9.884;2023-11-19T07:15:15;12.73;;;4.30;;
16878;SDS011;8556;52.218;9.884;2023-11-19T07:17:43;14.03;;;4.63;;
16878;SDS011;8556;52.218;9.884;2023-11-19T07:20:11;15.20;;;4.37;;
16878;SDS011;8556;52.218;9.884;2023-11-19T07:22:39;17.10;;;5.87;;
16878;SDS011;8556;52.218;9.884;2023-11-19T07:25:10;11.97;;;3.97;;
16878;SDS011;8556;52.218;9.884;2023-11-19T07:27:38;15.47;;;4.90;;
16878;SDS011;8556;52.218;9.884;2023-11-19T07:30:05;15.47;;;4.93;;
16878;SDS011;8556;52.218;9.884;2023-11-19T07:32:33;15.50;;;5.40;;
16878;SDS011;8556;52.218;9.884;2023-11-19T07:35:00;16.67;;;5.03;;
16878;SDS011;8556;52.218;9.884;2023-11-19T07:37:27;16.47;;;4.80;;
16878;SDS011;8556;52.218;9.884;2023-11-19T07:39:55;10.93;;;4.60;;
16878;SDS011;8556;52.218;9.884;2023-11-19T07:42:22;17.83;;;4.73;;
16878;SDS011;8556;52.218;9.884;2023-11-19T07:44:49;17.53;;;4.73;;
16878;SDS011;8556;52.218;9.884;2023-11-19T07:47:16;14.90;;;5.20;;
16878;SDS011;8556;52.218;9.884;2023-11-19T07:49:42;13.97;;;4.63;;
16878;SDS011;8556;52.218;9.884;2023-11-19T07:52:09;14.07;;;4.37;;
16878;SDS011;8556;52.218;9.884;2023-11-19T07:54:37;15.20;;;4.30;;
16878;SDS011;8556;52.218;9.884;2023-11-19T07:57:05;19.30;;;4.87;;
16878;SDS011;8556;52.218;9.884;2023-11-19T07:59:32;17.00;;;4.37;;
16878;SDS011;8556;52.218;9.884;2023-11-19T08:01:59;14.60;;;4.03;;
16878;SDS011;8556;52.218;9.884;2023-11-19T08:04:26;13.50;;;5.07;;
16878;SDS011;8556;52.218;9.884;2023-11-19T08:06:52;16.30;;;4.90;;
16878;SDS011;8556;52.218;9.884;2023-11-19T08:09:19;17.47;;;4.57;;
16878;SDS011;8556;52.218;9.884;2023-11-19T08:11:46;9.77;;;3.90;;
16878;SDS011;8556;52.218;9.884;2023-11-19T08:14:15;15.67;;;4.10;;
16878;SDS011;8556;52.218;9.884;2023-11-19T08:16:41;15.57;;;4.00;;
16878;SDS011;8556;52.218;9.884;2023-11-19T08:19:10;16.30;;;4.50;;
16878;SDS011;8556;52.218;9.884;2023-11-19T08:21:37;16.40;;;4.40;;
16878;SDS011;8556;52.218;9.884;2023-11-19T08:24:06;14.17;;;4.13;;
16878;SDS011;8556;52.218;9.884;2023-11-19T08:26:34;16.57;;;4.67;;
16878;SDS011;8556;52.218;9.884;2023-11-19T08:29:02;18.23;;;4.30;;
16878;SDS011;8556;52.218;9.884;2023-11-19T08:31:30;15.83;;;4.70;;
16878;SDS011;8556;52.218;9.884;2023-11-19T08:33:57;18.30;;;4.87;;
16878;SDS011;8556;52.218;9.884;2023-11-19T08:36:24;18.17;;;4.43;;
16878;SDS011;8556;52.218;9.884;2023-11-19T08:38:53;20.63;;;4.07;;
16878;SDS011;8556;52.218;9.884;2023-11-19T08:41:21;14.60;;;4.20;;
16878;SDS011;8556;52.218;9.884;2023-11-19T08:43:47;15.60;;;4.07;;
16878;SDS011;8556;52.218;9.884;2023-11-19T08:46:15;15.97;;;3.67;;
16878;SDS011;8556;52.218;9.884;2023-11-19T08:48:43;16.50;;;4.30;;
16878;SDS011;8556;52.218;9.884;2023-11-19T08:51:11;14.47;;;4.43;;
16878;SDS011;8556;52.218;9.884;2023-11-19T08:53:38;15.63;;;3.93;;
16878;SDS011;8556;52.218;9.884;2023-11-19T08:56:05;19.27;;;5.47;;
16878;SDS011;8556;52.218;9.884;2023-11-19T08:58:33;18.57;;;5.63;;
16878;SDS011;8556;52.218;9.884;2023-11-19T09:01:01;19.33;;;4.90;;
16878;SDS011;8556;52.218;9.884;2023-11-19T09:03:30;16.27;;;4.53;;
16878;SDS011;8556;52.218;9.884;2023-11-19T09:06:00;20.13;;;4.33;;
16878;SDS011;8556;52.218;9.884;2023-11-19T09:08:29;14.43;;;4.00;;
16878;SDS011;8556;52.218;9.884;2023-11-19T09:10:55;15.60;;;4.43;;
16878;SDS011;8556;52.218;9.884;2023-11-19T09:13:23;17.43;;;5.07;;
16878;SDS011;8556;52.218;9.884;2023-11-19T09:15:50;22.00;;;4.77;;
16878;SDS011;8556;52.218;9.884;2023-11-19T09:18:17;17.93;;;5.27;;
16878;SDS011;8556;52.218;9.884;2023-11-19T09:20:43;17.13;;;4.00;;
16878;SDS011;8556;52.218;9.884;2023-11-19T09:23:12;24.00;;;5.40;;
16878;SDS011;8556;52.218;9.884;2023-11-19T09:25:39;18.50;;;5.33;;
16878;SDS011;8556;52.218;9.884;2023-11-19T09:28:06;20.97;;;4.27;;
16878;SDS011;8556;52.218;9.884;2023-11-19T09:30:35;20.23;;;4.77;;
16878;SDS011;8556;52.218;9.884;2023-11-19T09:33:02;20.57;;;5.70;;
16878;SDS011;8556;52.218;9.884;2023-11-19T09:35:29;17.53;;;4.13;;
16878;SDS011;8556;52.218;9.884;2023-11-19T09:37:57;16.53;;;3.80;;
16878;SDS011;8556;52.218;9.884;2023-11-19T09:40:26;21.27;;;4.53;;
16878;SDS011;8556;52.218;9.884;2023-11-19T09:42:53;21.43;;;4.50;;
16878;SDS011;8556;52.218;9.884;2023-11-19T09:45:20;17.40;;;4.33;;
16878;SDS011;8556;52.218;9.884;2023-11-19T09:47:48;17.83;;;4.27;;
16878;SDS011;8556;52.218;9.884;2023-11-19T09:50:19;20.07;;;5.53;;
16878;SDS011;8556;52.218;9.884;2023-11-19T09:52:46;22.20;;;4.17;;
16878;SDS011;8556;52.218;9.884;2023-11-19T09:55:14;15.90;;;4.37;;
16878;SDS011;8556;52.218;9.884;2023-11-19T09:57:42;22.10;;;4.73;;
16878;SDS011;8556;52.218;9.884;2023-11-19T10:00:11;19.87;;;4.80;;
16878;SDS011;8556;52.218;9.884;2023-11-19T10:02:40;21.23;;;5.23;;
16878;SDS011;8556;52.218;9.884;2023-11-19T10:05:11;20.53;;;4.37;;
16878;SDS011;8556;52.218;9.884;2023-11-19T10:07:39;20.80;;;4.13;;
16878;SDS011;8556;52.218;9.884;2023-11-19T10:10:07;18.57;;;4.50;;
16878;SDS011;8556;52.218;9.884;2023-11-19T10:12:39;20.33;;;4.63;;
16878;SDS011;8556;52.218;9.884;2023-11-19T10:15:09;20.60;;;4.80;;
16878;SDS011;8556;52.218;9.884;2023-11-19T10:17:46;14.13;;;3.90;;
16878;SDS011;8556;52.218;9.884;2023-11-19T10:20:12;17.67;;;3.90;;
16878;SDS011;8556;52.218;9.884;2023-11-19T10:22:39;16.93;;;3.90;;
16878;SDS011;8556;52.218;9.884;2023-11-19T10:25:08;21.50;;;4.30;;
16878;SDS011;8556;52.218;9.884;2023-11-19T10:27:48;18.80;;;4.43;;
16878;SDS011;8556;52.218;9.884;2023-11-19T10:30:18;19.17;;;4.00;;
16878;SDS011;8556;52.218;9.884;2023-11-19T10:33:01;16.30;;;3.60;;
16878;SDS011;8556;52.218;9.884;2023-11-19T10:35:30;15.20;;;4.07;;
16878;SDS011;8556;52.218;9.884;2023-11-19T10:37:59;13.97;;;3.67;;
16878;SDS011;8556;52.218;9.884;2023-11-19T10:40:39;15.80;;;3.80;;
16878;SDS011;8556;52.218;9.884;2023-11-19T10:43:07;16.90;;;5.20;;
16878;SDS011;8556;52.218;9.884;2023-11-19T10:45:36;11.07;;;4.03;;
16878;SDS011;8556;52.218;9.884;2023-11-19T10:48:04;18.27;;;3.70;;
16878;SDS011;8556;52.218;9.884;2023-11-19T10:50:32;14.50;;;3.80;;
16878;SDS011;8556;52.218;9.884;2023-11-19T10:53:00;18.10;;;4.90;;
16878;SDS011;8556;52.218;9.884;2023-11-19T10:55:28;15.47;;;4.70;;
16878;SDS011;8556;52.218;9.884;2023-11-19T10:57:58;16.87;;;3.93;;
16878;SDS011;8556;52.218;9.884;2023-11-19T11:00:26;20.20;;;4.23;;
16878;SDS011;8556;52.218;9.884;2023-11-19T11:03:00;19.37;;;5.03;;
16878;SDS011;8556;52.218;9.884;2023-11-19T11:05:28;13.50;;;3.87;;
16878;SDS011;8556;52.218;9.884;2023-11-19T11:07:59;16.03;;;4.00;;
16878;SDS011;8556;52.218;9.884;2023-11-19T11:10:29;15.73;;;4.70;;
16878;SDS011;8556;52.218;9.884;2023-11-19T11:13:01;21.27;;;4.67;;
16878;SDS011;8556;52.218;9.884;2023-11-19T11:15:30;19.00;;;4.87;;
16878;SDS011;8556;52.218;9.884;2023-11-19T11:17:59;23.80;;;5.53;;
16878;SDS011;8556;52.218;9.884;2023-11-19T11:20:28;18.77;;;4.80;;
16878;SDS011;8556;52.218;9.884;2023-11-19T11:23:10;16.80;;;4.60;;
16878;SDS011;8556;52.218;9.884;2023-11-19T11:26:00;19.57;;;4.07;;
16878;SDS011;8556;52.218;9.884;2023-11-19T11:28:46;22.73;;;4.90;;
16878;SDS011;8556;52.218;9.884;2023-11-19T11:31:31;17.50;;;4.40;;
16878;SDS011;8556;52.218;9.884;2023-11-19T11:34:21;16.13;;;4.50;;
16878;SDS011;8556;52.218;9.884;2023-11-19T11:37:05;19.93;;;5.20;;
16878;SDS011;8556;52.218;9.884;2023-11-19T11:39:40;17.33;;;4.33;;
16878;SDS011;8556;52.218;9.884;2023-11-19T11:45:03;17.10;;;4.70;;
16878;SDS011;8556;52.218;9.884;2023-11-19T11:50:46;21.03;;;4.93;;
16878;SDS011;8556;52.218;9.884;2023-11-19T11:53:16;16.33;;;4.23;;
16878;SDS011;8556;52.218;9.884;2023-11-19T11:55:54;16.77;;;4.60;;
16878;SDS011;8556;52.218;9.884;2023-11-19T11:58:27;17.15;;;4.38;;
16878;SDS011;8556;52.218;9.884;2023-11-19T12:00:57;22.80;;;4.85;;
16878;SDS011;8556;52.218;9.884;2023-11-19T12:03:26;22.60;;;4.93;;
16878;SDS011;8556;52.218;9.884;2023-11-19T12:05:56;18.07;;;4.77;;
16878;SDS011;8556;52.218;9.884;2023-11-19T12:08:28;21.87;;;5.20;;
16878;SDS011;8556;52.218;9.884;2023-11-19T12:10:57;21.63;;;4.90;;
16878;SDS011;8556;52.218;9.884;2023-11-19T12:13:26;15.80;;;4.23;;
16878;SDS011;8556;52.218;9.884;2023-11-19T12:16:10;20.55;;;4.55;;
16878;SDS011;8556;52.218;9.884;2023-11-19T12:18:40;25.07;;;5.30;;
16878;SDS011;8556;52.218;9.884;2023-11-19T12:21:10;24.87;;;5.60;;
16878;SDS011;8556;52.218;9.884;2023-11-19T12:23:43;20.52;;;4.65;;
16878;SDS011;8556;52.218;9.884;2023-11-19T12:26:34;19.90;;;4.50;;
16878;SDS011;8556;52.218;9.884;2023-11-19T12:29:05;23.55;;;4.57;;
16878;SDS011;8556;52.218;9.884;2023-11-19T12:31:33;25.63;;;4.85;;
16878;SDS011;8556;52.218;9.884;2023-11-19T12:34:08;17.98;;;4.70;;
16878;SDS011;8556;52.218;9.884;2023-11-19T12:36:38;23.52;;;4.25;;
16878;SDS011;8556;52.218;9.884;2023-11-19T12:39:06;23.23;;;4.35;;
16878;SDS011;8556;52.218;9.884;2023-11-19T12:41:48;16.70;;;4.10;;
16878;SDS011;8556;52.218;9.884;2023-11-19T12:44:18;19.20;;;4.00;;
16878;SDS011;8556;52.218;9.884;2023-11-19T12:46:45;22.05;;;4.53;;
16878;SDS011;8556;52.218;9.884;2023-11-19T12:49:12;23.23;;;4.68;;
16878;SDS011;8556;52.218;9.884;2023-11-19T12:51:41;21.27;;;4.43;;
16878;SDS011;8556;52.218;9.884;2023-11-19T12:54:08;19.97;;;4.80;;
16878;SDS011;8556;52.218;9.884;2023-11-19T12:56:35;20.33;;;4.57;;
16878;SDS011;8556;52.218;9.884;2023-11-19T12:59:11;19.13;;;4.53;;
16878;SDS011;8556;52.218;9.884;2023-11-19T13:01:38;25.60;;;5.47;;
16878;SDS011;8556;52.218;9.884;2023-11-19T13:04:16;17.90;;;5.20;;
16878;SDS011;8556;52.218;9.884;2023-11-19T13:06:46;18.83;;;4.00;;
16878;SDS011;8556;52.218;9.884;2023-11-19T13:09:23;17.37;;;4.47;;
16878;SDS011;8556;52.218;9.884;2023-11-19T13:11:51;18.23;;;4.67;;
16878;SDS011;8556;52.218;9.884;2023-11-19T13:14:20;17.97;;;4.70;;
16878;SDS011;8556;52.218;9.884;2023-11-19T13:16:48;18.97;;;4.97;;
16878;SDS011;8556;52.218;9.884;2023-11-19T13:19:15;15.27;;;4.80;;
16878;SDS011;8556;52.218;9.884;2023-11-19T13:21:44;17.93;;;4.23;;
16878;SDS011;8556;52.218;9.884;2023-11-19T13:24:13;16.70;;;4.10;;
16878;SDS011;8556;52.218;9.884;2023-11-19T13:26:40;17.20;;;4.37;;
16878;SDS011;8556;52.218;9.884;2023-11-19T13:29:07;16.50;;;4.20;;
16878;SDS011;8556;52.218;9.884;2023-11-19T13:31:36;20.27;;;4.67;;
16878;SDS011;8556;52.218;9.884;2023-11-19T13:34:03;21.30;;;5.23;;
16878;SDS011;8556;52.218;9.884;2023-11-19T13:36:32;26.13;;;5.33;;
16878;SDS011;8556;52.218;9.884;2023-11-19T13:39:00;15.83;;;5.50;;
16878;SDS011;8556;52.218;9.884;2023-11-19T13:41:27;18.67;;;5.07;;
16878;SDS011;8556;52.218;9.884;2023-11-19T13:43:54;16.57;;;5.10;;
16878;SDS011;8556;52.218;9.884;2023-11-19T13:46:21;16.23;;;4.33;;
16878;SDS011;8556;52.218;9.884;2023-11-19T13:48:49;17.13;;;4.47;;
16878;SDS011;8556;52.218;9.884;2023-11-19T13:51:16;22.50;;;5.07;;
16878;SDS011;8556;52.218;9.884;2023-11-19T13:53:43;14.33;;;4.30;;
16878;SDS011;8556;52.218;9.884;2023-11-19T13:56:11;16.53;;;5.47;;
16878;SDS011;8556;52.218;9.884;2023-11-19T13:58:38;19.53;;;5.50;;
16878;SDS011;8556;52.218;9.884;2023-11-19T14:01:05;20.37;;;5.63;;
16878;SDS011;8556;52.218;9.884;2023-11-19T14:03:33;25.13;;;5.67;;
16878;SDS011;8556;52.218;9.884;2023-11-19T14:06:00;23.13;;;6.33;;
16878;SDS011;8556;52.218;9.884;2023-11-19T14:08:27;25.40;;;5.80;;
16878;SDS011;8556;52.218;9.884;2023-11-19T14:10:54;21.30;;;5.00;;
16878;SDS011;8556;52.218;9.884;2023-11-19T14:13:22;19.70;;;5.33;;
16878;SDS011;8556;52.218;9.884;2023-11-19T14:15:49;16.27;;;5.03;;
16878;SDS011;8556;52.218;9.884;2023-11-19T14:18:16;17.20;;;5.57;;
16878;SDS011;8556;52.218;9.884;2023-11-19T14:20:43;22.07;;;5.20;;
16878;SDS011;8556;52.218;9.884;2023-11-19T14:23:10;19.27;;;5.63;;
16878;SDS011;8556;52.218;9.884;2023-11-19T14:25:38;20.17;;;6.03;;
16878;SDS011;8556;52.218;9.884;2023-11-19T14:28:05;20.17;;;6.23;;
16878;SDS011;8556;52.218;9.884;2023-11-19T14:30:34;17.10;;;4.60;;
16878;SDS011;8556;52.218;9.884;2023-11-19T14:33:00;20.87;;;5.73;;
16878;SDS011;8556;52.218;9.884;2023-11-19T14:35:28;19.77;;;4.60;;
16878;SDS011;8556;52.218;9.884;2023-11-19T14:37:57;21.63;;;4.60;;
16878;SDS011;8556;52.218;9.884;2023-11-19T14:40:24;16.83;;;4.20;;
16878;SDS011;8556;52.218;9.884;2023-11-19T14:42:51;17.13;;;4.90;;
16878;SDS011;8556;52.218;9.884;2023-11-19T14:45:18;21.40;;;5.03;;
16878;SDS011;8556;52.218;9.884;2023-11-19T14:47:49;18.90;;;4.60;;
16878;SDS011;8556;52.218;9.884;2023-11-19T14:50:16;17.70;;;4.57;;
16878;SDS011;8556;52.218;9.884;2023-11-19T14:52:43;21.30;;;5.67;;
16878;SDS011;8556;52.218;9.884;2023-11-19T14:55:11;20.67;;;5.37;;
16878;SDS011;8556;52.218;9.884;2023-11-19T14:57:38;16.13;;;4.60;;
16878;SDS011;8556;52.218;9.884;2023-11-19T15:00:07;17.70;;;4.47;;
16878;SDS011;8556;52.218;9.884;2023-11-19T15:02:39;19.00;;;5.63;;
16878;SDS011;8556;52.218;9.884;2023-11-19T15:05:10;17.77;;;4.90;;
16878;SDS011;8556;52.218;9.884;2023-11-19T15:07:38;16.20;;;4.10;;